sensor_id;sensor_type;location;lat;lon;timestamp;temperature;humidity
74657;DHT22;63185;45.642;13.764;2023-03-01T00:01:53;6.70;52.70
74657;DHT22;63185;45.642;13.764;2023-03-01T00:04:18;6.60;52.80
74657;DHT22;63185;45.642;13.764;2023-03-01T00:06:44;6.70;52.60
74657;DHT22;63185;45.642;13.764;2023-03-01T00:09:12;6.60;52.80
74657;DHT22;63185;45.642;13.764;2023-03-01T00:11:38;6.70;53.00
74657;DHT22;63185;45.642;13.764;2023-03-01T00:14:04;6.70;52.50
74657;DHT22;63185;45.642;13.764;2023-03-01T00:16:36;6.70;52.50
74657;DHT22;63185;45.642;13.764;2023-03-01T00:19:03;6.80;52.40
74657;DHT22;63185;45.642;13.764;2023-03-01T00:21:29;6.70;52.30
74657;DHT22;63185;45.642;13.764;2023-03-01T00:23:55;6.70;52.20
74657;DHT22;63185;45.642;13.764;2023-03-01T00:26:22;6.70;52.20
74657;DHT22;63185;45.642;13.764;2023-03-01T00:28:48;6.70;52.50
74657;DHT22;63185;45.642;13.764;2023-03-01T00:31:20;6.60;52.50
74657;DHT22;63185;45.642;13.764;2023-03-01T00:33:46;6.70;52.30
74657;DHT22;63185;45.642;13.764;2023-03-01T00:36:14;6.80;52.50
74657;DHT22;63185;45.642;13.764;2023-03-01T00:38:42;6.70;52.40
74657;DHT22;63185;45.642;13.764;2023-03-01T00:41:11;6.70;52.40
74657;DHT22;63185;45.642;13.764;2023-03-01T00:43:37;6.60;52.30
74657;DHT22;63185;45.642;13.764;2023-03-01T00:46:08;6.60;52.40
74657;DHT22;63185;45.642;13.764;2023-03-01T00:48:35;6.80;52.00
74657;DHT22;63185;45.642;13.764;2023-03-01T00:53:37;6.60;52.10
74657;DHT22;63185;45.642;13.764;2023-03-01T00:56:04;6.60;52.30
74657;DHT22;63185;45.642;13.764;2023-03-01T00:58:30;6.70;52.20
74657;DHT22;63185;45.642;13.764;2023-03-01T01:00:55;6.70;52.10
74657;DHT22;63185;45.642;13.764;2023-03-01T01:03:22;6.70;51.90
74657;DHT22;63185;45.642;13.764;2023-03-01T01:05:53;6.60;52.00
74657;DHT22;63185;45.642;13.764;2023-03-01T01:08:19;6.70;51.80
74657;DHT22;63185;45.642;13.764;2023-03-01T01:10:46;6.70;51.90
74657;DHT22;63185;45.642;13.764;2023-03-01T01:13:12;6.60;52.10
74657;DHT22;63185;45.642;13.764;2023-03-01T01:15:38;6.70;51.80
74657;DHT22;63185;45.642;13.764;2023-03-01T01:18:04;6.60;51.80
74657;DHT22;63185;45.642;13.764;2023-03-01T01:20:29;6.60;52.00
74657;DHT22;63185;45.642;13.764;2023-03-01T01:22:55;6.70;51.70
74657;DHT22;63185;45.642;13.764;2023-03-01T01:25:21;6.60;51.90
74657;DHT22;63185;45.642;13.764;2023-03-01T01:27:46;6.60;52.00
74657;DHT22;63185;45.642;13.764;2023-03-01T01:30:12;6.60;51.80
74657;DHT22;63185;45.642;13.764;2023-03-01T01:32:38;6.60;51.90
74657;DHT22;63185;45.642;13.764;2023-03-01T01:35:04;6.60;51.90
74657;DHT22;63185;45.642;13.764;2023-03-01T01:37:30;6.70;51.90
74657;DHT22;63185;45.642;13.764;2023-03-01T01:39:59;6.70;51.90
74657;DHT22;63185;45.642;13.764;2023-03-01T01:42:26;6.60;51.70
74657;DHT22;63185;45.642;13.764;2023-03-01T01:47:58;6.70;51.80
74657;DHT22;63185;45.642;13.764;2023-03-01T01:50:26;6.60;52.00
74657;DHT22;63185;45.642;13.764;2023-03-01T01:52:53;6.60;52.00
74657;DHT22;63185;45.642;13.764;2023-03-01T01:55:24;6.60;51.70
74657;DHT22;63185;45.642;13.764;2023-03-01T01:57:57;6.60;51.90
74657;DHT22;63185;45.642;13.764;2023-03-01T02:00:28;6.80;51.70
74657;DHT22;63185;45.642;13.764;2023-03-01T02:03:00;6.70;51.90
74657;DHT22;63185;45.642;13.764;2023-03-01T02:08:13;6.80;51.70
74657;DHT22;63185;45.642;13.764;2023-03-01T02:10:40;6.80;51.30
74657;DHT22;63185;45.642;13.764;2023-03-01T02:13:07;6.80;51.50
74657;DHT22;63185;45.642;13.764;2023-03-01T02:15:36;6.80;51.30
74657;DHT22;63185;45.642;13.764;2023-03-01T02:18:03;6.90;51.30
74657;DHT22;63185;45.642;13.764;2023-03-01T02:20:34;6.80;51.50
74657;DHT22;63185;45.642;13.764;2023-03-01T02:23:00;6.80;51.20
74657;DHT22;63185;45.642;13.764;2023-03-01T02:25:39;6.90;51.40
74657;DHT22;63185;45.642;13.764;2023-03-01T02:30:39;6.90;51.10
74657;DHT22;63185;45.642;13.764;2023-03-01T02:33:25;6.80;51.10
74657;DHT22;63185;45.642;13.764;2023-03-01T02:35:54;6.90;50.80
74657;DHT22;63185;45.642;13.764;2023-03-01T02:38:21;6.90;50.80
74657;DHT22;63185;45.642;13.764;2023-03-01T02:40:49;6.90;50.70
74657;DHT22;63185;45.642;13.764;2023-03-01T02:43:16;6.90;51.00
74657;DHT22;63185;45.642;13.764;2023-03-01T02:45:51;6.90;50.70
74657;DHT22;63185;45.642;13.764;2023-03-01T02:48:17;6.90;50.50
74657;DHT22;63185;45.642;13.764;2023-03-01T02:54:07;6.90;50.20
74657;DHT22;63185;45.642;13.764;2023-03-01T02:56:34;7.00;50.10
74657;DHT22;63185;45.642;13.764;2023-03-01T02:59:00;7.00;50.20
74657;DHT22;63185;45.642;13.764;2023-03-01T03:01:26;6.90;50.10
74657;DHT22;63185;45.642;13.764;2023-03-01T03:04:09;6.90;50.30
74657;DHT22;63185;45.642;13.764;2023-03-01T03:06:36;6.90;50.40
74657;DHT22;63185;45.642;13.764;2023-03-01T03:09:03;7.00;50.60
74657;DHT22;63185;45.642;13.764;2023-03-01T03:11:29;6.90;50.80
74657;DHT22;63185;45.642;13.764;2023-03-01T03:13:55;6.90;50.50
74657;DHT22;63185;45.642;13.764;2023-03-01T03:16:21;6.90;50.50
74657;DHT22;63185;45.642;13.764;2023-03-01T03:18:47;6.90;50.90
74657;DHT22;63185;45.642;13.764;2023-03-01T03:21:14;7.00;50.80
74657;DHT22;63185;45.642;13.764;2023-03-01T03:23:40;6.90;51.10
74657;DHT22;63185;45.642;13.764;2023-03-01T03:26:06;7.00;51.00
74657;DHT22;63185;45.642;13.764;2023-03-01T03:28:34;7.00;50.80
74657;DHT22;63185;45.642;13.764;2023-03-01T03:31:00;7.00;50.90
74657;DHT22;63185;45.642;13.764;2023-03-01T03:33:30;7.00;50.90
74657;DHT22;63185;45.642;13.764;2023-03-01T03:35:56;7.00;51.10
74657;DHT22;63185;45.642;13.764;2023-03-01T03:38:22;7.10;50.80
74657;DHT22;63185;45.642;13.764;2023-03-01T03:43:19;6.90;51.60
74657;DHT22;63185;45.642;13.764;2023-03-01T03:45:46;6.90;51.70
74657;DHT22;63185;45.642;13.764;2023-03-01T03:48:12;7.00;51.80
74657;DHT22;63185;45.642;13.764;2023-03-01T03:50:39;7.00;51.50
74657;DHT22;63185;45.642;13.764;2023-03-01T03:53:07;7.10;51.20
74657;DHT22;63185;45.642;13.764;2023-03-01T03:55:34;7.10;51.00
74657;DHT22;63185;45.642;13.764;2023-03-01T03:58:01;7.10;50.60
74657;DHT22;63185;45.642;13.764;2023-03-01T04:00:34;7.20;50.80
74657;DHT22;63185;45.642;13.764;2023-03-01T04:03:00;7.10;50.30
74657;DHT22;63185;45.642;13.764;2023-03-01T04:05:27;7.10;50.40
74657;DHT22;63185;45.642;13.764;2023-03-01T04:07:53;7.00;50.40
74657;DHT22;63185;45.642;13.764;2023-03-01T04:10:27;6.90;50.50
74657;DHT22;63185;45.642;13.764;2023-03-01T04:12:53;7.00;50.60
74657;DHT22;63185;45.642;13.764;2023-03-01T04:15:22;6.90;50.90
74657;DHT22;63185;45.642;13.764;2023-03-01T04:17:50;6.90;51.20
74657;DHT22;63185;45.642;13.764;2023-03-01T04:20:20;6.90;51.20
74657;DHT22;63185;45.642;13.764;2023-03-01T04:22:56;7.00;51.30
74657;DHT22;63185;45.642;13.764;2023-03-01T04:25:23;6.90;50.90
74657;DHT22;63185;45.642;13.764;2023-03-01T04:27:49;6.90;51.40
74657;DHT22;63185;45.642;13.764;2023-03-01T04:30:15;6.90;51.20
74657;DHT22;63185;45.642;13.764;2023-03-01T04:32:40;7.00;51.10
74657;DHT22;63185;45.642;13.764;2023-03-01T04:35:07;7.00;50.70
74657;DHT22;63185;45.642;13.764;2023-03-01T04:37:33;7.00;50.90
74657;DHT22;63185;45.642;13.764;2023-03-01T04:40:00;7.00;50.80
74657;DHT22;63185;45.642;13.764;2023-03-01T04:42:26;7.00;51.00
74657;DHT22;63185;45.642;13.764;2023-03-01T04:44:52;7.10;51.10
74657;DHT22;63185;45.642;13.764;2023-03-01T04:47:17;7.00;50.90
74657;DHT22;63185;45.642;13.764;2023-03-01T04:49:43;7.10;50.90
74657;DHT22;63185;45.642;13.764;2023-03-01T04:52:09;7.00;50.90
74657;DHT22;63185;45.642;13.764;2023-03-01T04:54:35;7.00;50.90
74657;DHT22;63185;45.642;13.764;2023-03-01T04:57:02;7.10;50.50
74657;DHT22;63185;45.642;13.764;2023-03-01T04:59:29;7.00;50.70
74657;DHT22;63185;45.642;13.764;2023-03-01T05:01:55;7.00;50.60
74657;DHT22;63185;45.642;13.764;2023-03-01T05:04:22;7.00;50.80
74657;DHT22;63185;45.642;13.764;2023-03-01T05:06:47;7.00;50.70
74657;DHT22;63185;45.642;13.764;2023-03-01T05:09:13;6.90;50.90
74657;DHT22;63185;45.642;13.764;2023-03-01T05:11:39;6.90;50.80
74657;DHT22;63185;45.642;13.764;2023-03-01T05:14:06;6.90;50.90
74657;DHT22;63185;45.642;13.764;2023-03-01T05:16:32;6.80;51.20
74657;DHT22;63185;45.642;13.764;2023-03-01T05:18:59;6.90;51.10
74657;DHT22;63185;45.642;13.764;2023-03-01T05:21:25;6.80;51.10
74657;DHT22;63185;45.642;13.764;2023-03-01T05:23:51;6.80;51.30
74657;DHT22;63185;45.642;13.764;2023-03-01T05:26:18;6.90;51.30
74657;DHT22;63185;45.642;13.764;2023-03-01T05:28:44;6.90;51.30
74657;DHT22;63185;45.642;13.764;2023-03-01T05:31:10;6.90;51.20
74657;DHT22;63185;45.642;13.764;2023-03-01T05:33:37;6.80;51.50
74657;DHT22;63185;45.642;13.764;2023-03-01T05:36:04;6.80;51.30
74657;DHT22;63185;45.642;13.764;2023-03-01T05:38:29;6.90;51.00
74657;DHT22;63185;45.642;13.764;2023-03-01T05:40:55;6.90;51.20
74657;DHT22;63185;45.642;13.764;2023-03-01T05:43:21;6.90;51.00
74657;DHT22;63185;45.642;13.764;2023-03-01T05:45:47;6.90;51.30
74657;DHT22;63185;45.642;13.764;2023-03-01T05:48:13;6.80;51.20
74657;DHT22;63185;45.642;13.764;2023-03-01T05:50:41;6.80;51.10
74657;DHT22;63185;45.642;13.764;2023-03-01T05:53:19;6.80;51.20
74657;DHT22;63185;45.642;13.764;2023-03-01T05:55:46;6.90;51.00
74657;DHT22;63185;45.642;13.764;2023-03-01T05:58:19;6.80;50.90
74657;DHT22;63185;45.642;13.764;2023-03-01T06:00:46;7.00;50.80
74657;DHT22;63185;45.642;13.764;2023-03-01T06:03:14;6.90;50.40
74657;DHT22;63185;45.642;13.764;2023-03-01T06:05:41;7.00;50.60
74657;DHT22;63185;45.642;13.764;2023-03-01T06:08:09;7.00;50.60
74657;DHT22;63185;45.642;13.764;2023-03-01T06:10:35;6.90;50.30
74657;DHT22;63185;45.642;13.764;2023-03-01T06:13:01;7.00;50.40
74657;DHT22;63185;45.642;13.764;2023-03-01T06:15:26;7.00;50.50
74657;DHT22;63185;45.642;13.764;2023-03-01T06:17:54;7.00;50.70
74657;DHT22;63185;45.642;13.764;2023-03-01T06:20:23;7.00;50.80
74657;DHT22;63185;45.642;13.764;2023-03-01T06:22:49;7.00;50.70
74657;DHT22;63185;45.642;13.764;2023-03-01T06:25:17;7.00;50.80
74657;DHT22;63185;45.642;13.764;2023-03-01T06:27:43;7.10;50.40
74657;DHT22;63185;45.642;13.764;2023-03-01T06:30:15;7.20;50.40
74657;DHT22;63185;45.642;13.764;2023-03-01T06:32:41;7.00;50.60
74657;DHT22;63185;45.642;13.764;2023-03-01T06:35:11;7.00;50.70
74657;DHT22;63185;45.642;13.764;2023-03-01T06:37:37;7.10;50.50
74657;DHT22;63185;45.642;13.764;2023-03-01T06:40:04;7.20;50.30
74657;DHT22;63185;45.642;13.764;2023-03-01T06:42:37;7.20;50.50
74657;DHT22;63185;45.642;13.764;2023-03-01T06:45:04;7.20;50.50
74657;DHT22;63185;45.642;13.764;2023-03-01T06:47:31;7.20;50.20
74657;DHT22;63185;45.642;13.764;2023-03-01T06:49:59;7.20;50.50
74657;DHT22;63185;45.642;13.764;2023-03-01T06:52:24;7.30;50.80
74657;DHT22;63185;45.642;13.764;2023-03-01T06:54:50;7.40;50.30
74657;DHT22;63185;45.642;13.764;2023-03-01T06:57:16;7.40;50.40
74657;DHT22;63185;45.642;13.764;2023-03-01T06:59:42;7.50;49.90
74657;DHT22;63185;45.642;13.764;2023-03-01T07:02:11;7.50;50.00
74657;DHT22;63185;45.642;13.764;2023-03-01T07:04:38;7.30;50.20
74657;DHT22;63185;45.642;13.764;2023-03-01T07:07:04;7.40;50.20
74657;DHT22;63185;45.642;13.764;2023-03-01T07:09:30;7.40;50.30
74657;DHT22;63185;45.642;13.764;2023-03-01T07:11:56;7.30;50.60
74657;DHT22;63185;45.642;13.764;2023-03-01T07:14:22;7.30;50.80
74657;DHT22;63185;45.642;13.764;2023-03-01T07:16:50;7.30;50.70
74657;DHT22;63185;45.642;13.764;2023-03-01T07:19:15;7.30;50.80
74657;DHT22;63185;45.642;13.764;2023-03-01T07:21:41;7.40;50.50
74657;DHT22;63185;45.642;13.764;2023-03-01T07:24:09;7.30;50.80
74657;DHT22;63185;45.642;13.764;2023-03-01T07:26:34;7.20;50.90
74657;DHT22;63185;45.642;13.764;2023-03-01T07:29:01;7.30;51.20
74657;DHT22;63185;45.642;13.764;2023-03-01T07:31:27;7.20;50.90
74657;DHT22;63185;45.642;13.764;2023-03-01T07:33:56;7.30;51.10
74657;DHT22;63185;45.642;13.764;2023-03-01T07:36:22;7.30;51.30
74657;DHT22;63185;45.642;13.764;2023-03-01T07:38:48;7.30;50.70
74657;DHT22;63185;45.642;13.764;2023-03-01T07:41:13;7.60;50.80
74657;DHT22;63185;45.642;13.764;2023-03-01T07:43:40;7.50;50.60
74657;DHT22;63185;45.642;13.764;2023-03-01T07:46:06;7.60;50.50
74657;DHT22;63185;45.642;13.764;2023-03-01T07:48:32;7.70;50.40
74657;DHT22;63185;45.642;13.764;2023-03-01T07:51:03;7.70;50.30
74657;DHT22;63185;45.642;13.764;2023-03-01T07:53:29;7.60;50.60
74657;DHT22;63185;45.642;13.764;2023-03-01T07:56:04;7.60;50.70
74657;DHT22;63185;45.642;13.764;2023-03-01T07:58:30;7.60;50.80
74657;DHT22;63185;45.642;13.764;2023-03-01T08:00:55;7.60;51.00
74657;DHT22;63185;45.642;13.764;2023-03-01T08:03:21;7.60;50.70
74657;DHT22;63185;45.642;13.764;2023-03-01T08:05:47;7.60;50.90
74657;DHT22;63185;45.642;13.764;2023-03-01T08:08:12;7.50;51.10
74657;DHT22;63185;45.642;13.764;2023-03-01T08:10:38;7.50;51.30
74657;DHT22;63185;45.642;13.764;2023-03-01T08:13:04;7.60;51.20
74657;DHT22;63185;45.642;13.764;2023-03-01T08:15:29;7.50;51.30
74657;DHT22;63185;45.642;13.764;2023-03-01T08:17:55;7.60;51.30
74657;DHT22;63185;45.642;13.764;2023-03-01T08:20:21;7.70;51.00
74657;DHT22;63185;45.642;13.764;2023-03-01T08:22:46;7.70;51.30
74657;DHT22;63185;45.642;13.764;2023-03-01T08:25:12;7.70;51.10
74657;DHT22;63185;45.642;13.764;2023-03-01T08:27:38;7.90;50.80
74657;DHT22;63185;45.642;13.764;2023-03-01T08:30:04;7.90;50.80
74657;DHT22;63185;45.642;13.764;2023-03-01T08:32:32;8.10;50.30
74657;DHT22;63185;45.642;13.764;2023-03-01T08:35:00;8.10;50.70
74657;DHT22;63185;45.642;13.764;2023-03-01T08:37:26;7.90;50.50
74657;DHT22;63185;45.642;13.764;2023-03-01T08:39:51;8.10;50.60
74657;DHT22;63185;45.642;13.764;2023-03-01T08:42:17;7.90;50.80
74657;DHT22;63185;45.642;13.764;2023-03-01T08:44:43;8.00;50.90
74657;DHT22;63185;45.642;13.764;2023-03-01T08:47:08;7.90;51.10
74657;DHT22;63185;45.642;13.764;2023-03-01T08:49:34;8.00;51.00
74657;DHT22;63185;45.642;13.764;2023-03-01T08:52:01;8.00;51.10
74657;DHT22;63185;45.642;13.764;2023-03-01T08:54:27;7.80;51.50
74657;DHT22;63185;45.642;13.764;2023-03-01T08:56:54;7.70;51.40
74657;DHT22;63185;45.642;13.764;2023-03-01T08:59:19;7.90;51.30
74657;DHT22;63185;45.642;13.764;2023-03-01T09:01:45;8.10;51.00
74657;DHT22;63185;45.642;13.764;2023-03-01T09:04:12;8.00;50.80
74657;DHT22;63185;45.642;13.764;2023-03-01T09:06:38;8.10;51.00
74657;DHT22;63185;45.642;13.764;2023-03-01T09:09:05;8.20;50.30
74657;DHT22;63185;45.642;13.764;2023-03-01T09:11:31;8.20;50.20
74657;DHT22;63185;45.642;13.764;2023-03-01T09:13:57;8.20;50.30
74657;DHT22;63185;45.642;13.764;2023-03-01T09:16:23;8.40;50.10
74657;DHT22;63185;45.642;13.764;2023-03-01T09:18:53;8.60;49.60
74657;DHT22;63185;45.642;13.764;2023-03-01T09:21:20;8.60;49.60
74657;DHT22;63185;45.642;13.764;2023-03-01T09:23:47;8.70;49.20
74657;DHT22;63185;45.642;13.764;2023-03-01T09:26:18;8.70;49.10
74657;DHT22;63185;45.642;13.764;2023-03-01T09:28:45;9.00;48.50
74657;DHT22;63185;45.642;13.764;2023-03-01T09:31:12;8.90;49.10
74657;DHT22;63185;45.642;13.764;2023-03-01T09:33:38;8.80;49.20
74657;DHT22;63185;45.642;13.764;2023-03-01T09:36:07;8.60;49.60
74657;DHT22;63185;45.642;13.764;2023-03-01T09:38:33;8.50;49.80
74657;DHT22;63185;45.642;13.764;2023-03-01T09:41:00;8.40;50.40
74657;DHT22;63185;45.642;13.764;2023-03-01T09:43:46;8.50;50.50
74657;DHT22;63185;45.642;13.764;2023-03-01T09:46:14;8.50;50.60
74657;DHT22;63185;45.642;13.764;2023-03-01T09:48:50;8.50;50.50
74657;DHT22;63185;45.642;13.764;2023-03-01T09:51:30;8.50;50.50
74657;DHT22;63185;45.642;13.764;2023-03-01T09:53:56;8.50;50.70
74657;DHT22;63185;45.642;13.764;2023-03-01T10:01:59;8.50;51.10
74657;DHT22;63185;45.642;13.764;2023-03-01T10:04:55;8.50;50.90
74657;DHT22;63185;45.642;13.764;2023-03-01T10:09:55;8.60;50.40
74657;DHT22;63185;45.642;13.764;2023-03-01T10:12:25;8.60;50.50
74657;DHT22;63185;45.642;13.764;2023-03-01T10:15:07;8.50;50.80
74657;DHT22;63185;45.642;13.764;2023-03-01T10:17:49;8.50;51.40
74657;DHT22;63185;45.642;13.764;2023-03-01T10:22:42;8.40;51.30
74657;DHT22;63185;45.642;13.764;2023-03-01T10:25:14;8.50;51.30
74657;DHT22;63185;45.642;13.764;2023-03-01T10:27:47;8.60;51.40
74657;DHT22;63185;45.642;13.764;2023-03-01T10:30:34;8.70;51.20
74657;DHT22;63185;45.642;13.764;2023-03-01T10:33:03;8.60;51.40
74657;DHT22;63185;45.642;13.764;2023-03-01T10:35:31;8.60;51.40
74657;DHT22;63185;45.642;13.764;2023-03-01T10:38:10;8.60;51.60
74657;DHT22;63185;45.642;13.764;2023-03-01T10:41:07;8.60;51.40
74657;DHT22;63185;45.642;13.764;2023-03-01T10:43:47;8.70;51.50
74657;DHT22;63185;45.642;13.764;2023-03-01T10:46:33;8.60;51.80
74657;DHT22;63185;45.642;13.764;2023-03-01T10:49:22;8.70;51.40
74657;DHT22;63185;45.642;13.764;2023-03-01T10:51:50;8.80;51.40
74657;DHT22;63185;45.642;13.764;2023-03-01T10:54:31;8.90;51.10
74657;DHT22;63185;45.642;13.764;2023-03-01T10:56:59;8.90;51.20
74657;DHT22;63185;45.642;13.764;2023-03-01T10:59:28;8.80;51.30
74657;DHT22;63185;45.642;13.764;2023-03-01T11:04:35;8.80;51.20
74657;DHT22;63185;45.642;13.764;2023-03-01T11:07:02;8.90;50.80
74657;DHT22;63185;45.642;13.764;2023-03-01T11:09:32;8.80;51.00
74657;DHT22;63185;45.642;13.764;2023-03-01T11:12:04;8.80;51.60
74657;DHT22;63185;45.642;13.764;2023-03-01T11:14:36;8.70;51.10
74657;DHT22;63185;45.642;13.764;2023-03-01T11:17:23;8.70;51.50
74657;DHT22;63185;45.642;13.764;2023-03-01T11:22:58;8.80;51.70
74657;DHT22;63185;45.642;13.764;2023-03-01T11:25:37;8.70;51.80
74657;DHT22;63185;45.642;13.764;2023-03-01T11:28:05;8.90;51.50
74657;DHT22;63185;45.642;13.764;2023-03-01T11:30:37;9.10;51.00
74657;DHT22;63185;45.642;13.764;2023-03-01T11:33:33;9.20;50.60
74657;DHT22;63185;45.642;13.764;2023-03-01T11:36:01;9.00;50.90
74657;DHT22;63185;45.642;13.764;2023-03-01T11:38:29;9.20;50.50
74657;DHT22;63185;45.642;13.764;2023-03-01T11:54:21;8.90;50.60
74657;DHT22;63185;45.642;13.764;2023-03-01T12:00:07;9.00;50.70
74657;DHT22;63185;45.642;13.764;2023-03-01T12:05:51;8.70;51.20
74657;DHT22;63185;45.642;13.764;2023-03-01T12:08:32;8.80;51.20
74657;DHT22;63185;45.642;13.764;2023-03-01T12:44:19;9.20;50.30
74657;DHT22;63185;45.642;13.764;2023-03-01T12:49:58;9.20;50.00
74657;DHT22;63185;45.642;13.764;2023-03-01T12:52:41;9.20;50.10
74657;DHT22;63185;45.642;13.764;2023-03-01T13:00:38;8.70;51.90
74657;DHT22;63185;45.642;13.764;2023-03-01T13:08:56;8.60;52.40
74657;DHT22;63185;45.642;13.764;2023-03-01T13:11:26;8.60;52.30
74657;DHT22;63185;45.642;13.764;2023-03-01T13:13:51;8.60;52.40
74657;DHT22;63185;45.642;13.764;2023-03-01T13:16:40;8.60;51.80
74657;DHT22;63185;45.642;13.764;2023-03-01T13:19:20;8.60;52.50
74657;DHT22;63185;45.642;13.764;2023-03-01T13:21:47;8.60;52.90
74657;DHT22;63185;45.642;13.764;2023-03-01T13:24:39;8.40;52.90
74657;DHT22;63185;45.642;13.764;2023-03-01T13:29:57;8.60;52.90
74657;DHT22;63185;45.642;13.764;2023-03-01T13:32:31;8.40;53.60
74657;DHT22;63185;45.642;13.764;2023-03-01T13:37:38;8.30;54.00
74657;DHT22;63185;45.642;13.764;2023-03-01T13:42:53;8.20;54.50
74657;DHT22;63185;45.642;13.764;2023-03-01T13:45:40;8.30;54.60
74657;DHT22;63185;45.642;13.764;2023-03-01T13:48:26;8.30;54.70
74657;DHT22;63185;45.642;13.764;2023-03-01T13:50:58;8.40;54.10
74657;DHT22;63185;45.642;13.764;2023-03-01T13:53:33;8.40;54.20
74657;DHT22;63185;45.642;13.764;2023-03-01T13:56:07;8.40;53.90
74657;DHT22;63185;45.642;13.764;2023-03-01T13:59:05;8.50;53.70
74657;DHT22;63185;45.642;13.764;2023-03-01T14:01:36;8.40;53.80
74657;DHT22;63185;45.642;13.764;2023-03-01T14:04:03;8.40;53.80
74657;DHT22;63185;45.642;13.764;2023-03-01T14:06:42;8.50;54.10
74657;DHT22;63185;45.642;13.764;2023-03-01T14:09:23;8.50;54.20
74657;DHT22;63185;45.642;13.764;2023-03-01T14:14:33;8.50;54.60
74657;DHT22;63185;45.642;13.764;2023-03-01T14:17:19;8.40;54.90
74657;DHT22;63185;45.642;13.764;2023-03-01T14:19:56;8.30;55.80
74657;DHT22;63185;45.642;13.764;2023-03-01T14:22:23;8.40;55.40
74657;DHT22;63185;45.642;13.764;2023-03-01T14:24:57;8.40;55.40
74657;DHT22;63185;45.642;13.764;2023-03-01T14:27:32;8.50;55.80
74657;DHT22;63185;45.642;13.764;2023-03-01T14:30:09;8.40;55.90
74657;DHT22;63185;45.642;13.764;2023-03-01T14:32:38;8.30;57.40
74657;DHT22;63185;45.642;13.764;2023-03-01T14:35:23;8.20;60.20
74657;DHT22;63185;45.642;13.764;2023-03-01T14:37:49;8.10;59.50
74657;DHT22;63185;45.642;13.764;2023-03-01T14:40:30;8.00;59.20
74657;DHT22;63185;45.642;13.764;2023-03-01T14:42:58;8.10;58.70
74657;DHT22;63185;45.642;13.764;2023-03-01T14:45:25;8.10;59.10
74657;DHT22;63185;45.642;13.764;2023-03-01T14:47:52;8.10;60.50
74657;DHT22;63185;45.642;13.764;2023-03-01T14:50:22;8.10;59.10
74657;DHT22;63185;45.642;13.764;2023-03-01T14:52:52;8.10;59.10
74657;DHT22;63185;45.642;13.764;2023-03-01T14:55:27;8.20;58.70
74657;DHT22;63185;45.642;13.764;2023-03-01T14:57:54;8.20;58.50
74657;DHT22;63185;45.642;13.764;2023-03-01T15:00:29;8.30;57.70
74657;DHT22;63185;45.642;13.764;2023-03-01T15:02:56;8.40;58.10
74657;DHT22;63185;45.642;13.764;2023-03-01T15:05:31;8.30;57.70
74657;DHT22;63185;45.642;13.764;2023-03-01T15:08:00;8.30;57.50
74657;DHT22;63185;45.642;13.764;2023-03-01T15:10:32;8.40;57.10
74657;DHT22;63185;45.642;13.764;2023-03-01T15:13:21;8.40;57.00
74657;DHT22;63185;45.642;13.764;2023-03-01T15:15:49;8.40;56.30
74657;DHT22;63185;45.642;13.764;2023-03-01T15:18:22;8.40;56.40
74657;DHT22;63185;45.642;13.764;2023-03-01T15:20:50;8.40;56.40
74657;DHT22;63185;45.642;13.764;2023-03-01T15:23:27;8.50;56.30
74657;DHT22;63185;45.642;13.764;2023-03-01T15:25:54;8.50;56.20
74657;DHT22;63185;45.642;13.764;2023-03-01T15:28:48;8.50;56.60
74657;DHT22;63185;45.642;13.764;2023-03-01T15:31:29;8.40;56.50
74657;DHT22;63185;45.642;13.764;2023-03-01T15:34:24;8.40;56.20
74657;DHT22;63185;45.642;13.764;2023-03-01T15:36:52;8.40;56.10
74657;DHT22;63185;45.642;13.764;2023-03-01T15:39:37;8.30;55.70
74657;DHT22;63185;45.642;13.764;2023-03-01T15:42:38;8.50;55.70
74657;DHT22;63185;45.642;13.764;2023-03-01T15:50:27;8.40;56.00
74657;DHT22;63185;45.642;13.764;2023-03-01T15:52:53;8.40;56.10
74657;DHT22;63185;45.642;13.764;2023-03-01T15:55:21;8.40;55.80
74657;DHT22;63185;45.642;13.764;2023-03-01T15:57:48;8.50;55.80
74657;DHT22;63185;45.642;13.764;2023-03-01T16:00:14;8.50;56.50
74657;DHT22;63185;45.642;13.764;2023-03-01T16:02:42;8.50;55.90
74657;DHT22;63185;45.642;13.764;2023-03-01T16:07:44;8.50;55.20
74657;DHT22;63185;45.642;13.764;2023-03-01T16:10:09;8.50;55.20
74657;DHT22;63185;45.642;13.764;2023-03-01T16:12:35;8.60;55.00
74657;DHT22;63185;45.642;13.764;2023-03-01T16:15:01;8.60;55.00
74657;DHT22;63185;45.642;13.764;2023-03-01T16:17:27;8.70;54.90
74657;DHT22;63185;45.642;13.764;2023-03-01T16:19:53;8.70;55.00
74657;DHT22;63185;45.642;13.764;2023-03-01T16:22:19;8.60;55.40
74657;DHT22;63185;45.642;13.764;2023-03-01T16:24:50;8.60;55.30
74657;DHT22;63185;45.642;13.764;2023-03-01T16:27:15;8.60;55.70
74657;DHT22;63185;45.642;13.764;2023-03-01T16:29:41;8.60;55.60
74657;DHT22;63185;45.642;13.764;2023-03-01T16:32:07;8.50;56.30
74657;DHT22;63185;45.642;13.764;2023-03-01T16:34:33;8.60;56.20
74657;DHT22;63185;45.642;13.764;2023-03-01T16:36:58;8.50;55.90
74657;DHT22;63185;45.642;13.764;2023-03-01T16:39:24;8.60;55.90
74657;DHT22;63185;45.642;13.764;2023-03-01T16:41:50;8.50;56.20
74657;DHT22;63185;45.642;13.764;2023-03-01T16:44:15;8.50;56.30
74657;DHT22;63185;45.642;13.764;2023-03-01T16:46:42;8.50;56.30
74657;DHT22;63185;45.642;13.764;2023-03-01T16:49:08;8.50;56.70
74657;DHT22;63185;45.642;13.764;2023-03-01T16:51:34;8.60;56.40
74657;DHT22;63185;45.642;13.764;2023-03-01T16:54:01;8.70;56.30
74657;DHT22;63185;45.642;13.764;2023-03-01T16:56:27;8.60;56.30
74657;DHT22;63185;45.642;13.764;2023-03-01T16:58:54;8.60;56.50
74657;DHT22;63185;45.642;13.764;2023-03-01T17:01:20;8.60;56.20
74657;DHT22;63185;45.642;13.764;2023-03-01T17:03:49;8.60;56.10
74657;DHT22;63185;45.642;13.764;2023-03-01T17:06:19;8.70;56.00
74657;DHT22;63185;45.642;13.764;2023-03-01T17:08:50;8.70;56.10
74657;DHT22;63185;45.642;13.764;2023-03-01T17:11:17;8.70;55.90
74657;DHT22;63185;45.642;13.764;2023-03-01T17:13:44;8.60;55.80
74657;DHT22;63185;45.642;13.764;2023-03-01T17:16:13;8.60;56.20
74657;DHT22;63185;45.642;13.764;2023-03-01T17:18:39;8.60;56.50
74657;DHT22;63185;45.642;13.764;2023-03-01T17:21:06;8.50;56.80
74657;DHT22;63185;45.642;13.764;2023-03-01T17:23:33;8.50;56.80
74657;DHT22;63185;45.642;13.764;2023-03-01T17:25:59;8.50;56.80
74657;DHT22;63185;45.642;13.764;2023-03-01T17:28:28;8.60;56.80
74657;DHT22;63185;45.642;13.764;2023-03-01T17:30:54;8.50;56.80
74657;DHT22;63185;45.642;13.764;2023-03-01T17:33:20;8.60;56.50
74657;DHT22;63185;45.642;13.764;2023-03-01T17:35:47;8.60;56.20
74657;DHT22;63185;45.642;13.764;2023-03-01T17:38:13;8.60;56.30
74657;DHT22;63185;45.642;13.764;2023-03-01T17:40:42;8.60;56.50
74657;DHT22;63185;45.642;13.764;2023-03-01T17:43:11;8.70;57.10